New Harbor, ME

43° 52' 34"N, 69° 29' 40"W, Elevation 65 ft.
Eastern Time

Hourly observations for the last 72 hours

Date Time Temperature (°F) Humi-
dity

(%)
Wind
(mph)
Pressure Rain (in) Sun
(W/m2)
ET
(in)
Air Dew 6 Hour 1 Hr 3 Hr 6 Hr Day
Alt
(in)
Sea
Level

(mb)
Max Min
17 07:00 33.7 31.9 93 NNE 5 G 10 29.62 1003.1 0.01 0.03 21 0.000
17 06:00 34.3 32.5 93 NE 4 G 11 29.61 1002.8 0.01 0.02 0 0.000
17 05:00 34.7 32.6 92 NE 4 G 13 29.62 1003.0 0.01 0 0.000
17 04:00 35.3 33.2 92 NE 9 G 17 29.62 1003.2 0.01 0 0.000
17 03:00 36.1 34.0 92 NE 11 G 20 29.62 1003.1 0.01 0 0.000
17 02:00 36.6 34.5 38.3 36.1 92 NE 11 G 25 29.62 1002.9 0.02 0.06 0.01 0 0.000
17 01:00 36.6 34.8 93 NE 12 G 22 29.62 1003.0 0.01 0.01 0 0.000
17 00:00 37.0 35.2 93 ENE 12 G 23 29.62 1003.0 0.01 0.54 0 0.023
16 23:00 37.5 35.7 93 NE 13 G 22 29.62 1003.0 0.04 0.53 0 0.023
16 22:00 37.2 35.4 93 ENE 11 G 20 29.61 1002.8 0.03 0.53 0 0.023
16 21:00 36.2 34.4 93 ENE 12 G 20 29.61 1002.9 0.01 0.50 0 0.023
16 20:00 36.2 34.4 36.8 34.1 93 NE 11 G 18 29.60 1002.5 0.01 0.03 0.17 0.49 0 0.023
16 19:00 35.7 33.9 93 ENE 8 G 20 29.59 1002.2 0.01 0.48 0 0.022
16 18:00 35.3 33.5 93 ENE 13 G 21 29.59 1002.1 0.01 0.47 35 0.021
16 17:00 35.9 34.1 93 ENE 11 G 20 29.59 1002.2 0.03 0.14 0.46 39 0.020
16 16:00 36.4 34.6 93 ENE 13 G 26 29.59 1001.9 0.05 0.43 53 0.018
16 15:00 35.3 33.5 93 NE 11 G 26 29.56 1001.2 0.06 0.38 88 0.016
16 14:00 34.3 32.5 40.2 33.8 93 ENE 13 G 25 29.58 1001.9 0.06 0.20 0.32 0.32 88 0.014
16 13:00 35.1 33.0 92 NE 15 G 30 29.58 1001.6 0.08 0.26 46 0.013
16 12:00 36.4 34.0 91 ENE 14 G 25 29.59 1002.2 0.06 0.18 54 0.012
16 11:00 37.5 35.1 91 ENE 15 G 29 29.60 1002.5 0.04 0.12 0.12 86 0.010
16 10:00 38.2 35.8 91 ENE 13 G 32 29.61 1002.7 0.05 0.08 49 0.009
16 09:00 38.7 36.0 90 E 9 G 24 29.65 1004.1 0.03 0.03 39 0.008
16 08:00 40.2 36.9 41.9 40.2 88 ENE 11 G 24 29.68 1005.1 0.00 18 0.007
16 07:00 40.6 36.1 84 E 6 G 16 29.71 1006.1 0.00 7 0.006
16 06:00 40.7 36.2 84 E 6 G 16 29.71 1006.3 0.00 0 0.005
16 05:00 41.5 37.0 84 ENE 8 G 15 29.72 1006.3 0.00 0 0.004
16 04:00 41.1 36.3 83 ENE 8 G 15 29.73 1006.8 0.00 0 0.003
16 03:00 41.1 36.3 83 ENE 8 G 14 29.74 1007.1 0.00 0 0.002
16 02:00 41.9 36.8 42.2 40.1 82 ENE 6 G 9 29.75 1007.4 0.00 0 0.001
16 01:00 42.0 36.3 80 NE 2 G 5 29.76 1008.0 0.00 0 0.000
16 00:00 41.6 37.1 84 E 3 G 9 29.79 1008.7 0.00 0 0.099
15 23:00 41.3 36.5 83 E 3 G 6 29.79 1008.7 0.00 0 0.098
15 22:00 40.3 35.6 83 ESE 2 G 6 29.80 1009.3 0.00 0 0.097
15 21:00 40.5 36.3 85 ESE 2 G 4 29.82 1009.9 0.00 0 0.097
15 20:00 41.5 36.7 52.0 41.2 83 ESE 3 G 6 29.82 1010.0 0.00 0 0.097
15 19:00 42.2 36.8 81 E 2 G 7 29.82 1010.0 0.00 12 0.096
15 18:00 45.4 39.6 80 E 3 G 5 29.83 1010.1 0.00 63 0.092
15 17:00 48.3 41.1 76 SE 2 G 6 29.83 1010.3 0.00 149 0.086
15 16:00 49.0 42.1 77 S 3 G 7 29.83 1010.3 0.00 355 0.078
15 15:00 50.3 43.7 78 ESE 3 G 7 29.84 1010.5 0.00 371 0.068
15 14:00 51.5 44.2 54.4 42.2 76 E 3 G 6 29.86 1011.1 0.00 613 0.054
15 13:00 50.6 42.6 74 S 5 G 10 29.88 1011.7 0.00 552 0.041
15 12:00 52.3 42.1 68 SE 3 G 5 29.89 1012.1 0.00 657 0.026
15 11:00 51.5 42.8 72 ESE 2 G 7 29.89 1012.4 0.00 719 0.014
15 10:00 49.6 44.0 81 ESE 2 G 4 29.90 1012.4 0.00 548 0.006
15 09:00 45.4 42.1 88 E 2 G 5 29.89 1012.4 0.00 378 0.001
15 08:00 42.3 41.0 42.3 31.6 95 SE 2 G 4 29.89 1012.4 0.00 183 0.000
15 07:00 35.1 33.5 94 NE 1 G 4 29.89 1012.3 0.00 32 0.000
15 06:00 32.0 30.2 93 Calm 29.89 1012.3 0.00 5 0.000
15 05:00 32.5 30.7 93 NE 0 G 2 29.89 1012.2 0.00 0 0.000
15 04:00 32.1 30.3 93 Calm 29.90 1012.5 0.00 0 0.000
15 03:00 32.4 30.3 92 Calm 29.91 1012.8 0.00 0 0.000
15 02:00 33.2 30.9 41.3 33.0 91 NE 0 G 2 29.91 1013.0 0.00 0 0.000
15 01:00 35.0 32.6 91 Calm 29.93 1013.5 0.00 0 0.000
15 00:00 36.5 33.8 90 NW 2 G 4 29.92 1013.3 0.00 0 0.126
14 23:00 36.6 33.7 89 WNW 2 G 6 29.93 1013.6 0.00 0 0.126
14 22:00 37.5 34.0 87 W 0 G 3 29.93 1013.4 0.00 0 0.126
14 21:00 39.2 34.2 82 WNW 1 G 3 29.94 1013.8 0.00 0 0.125
14 20:00 41.3 34.6 52.2 41.2 77 W 0 G 3 29.93 1013.5 0.00 0 0.125
14 19:00 44.5 35.3 70 SSW 1 G 4 29.92 1013.3 0.00 14 0.124
14 18:00 46.7 34.4 62 SW 3 G 6 29.93 1013.6 0.00 76 0.120
14 17:00 49.5 34.9 57 S 5 G 10 29.94 1014.0 0.00 364 0.110
14 16:00 51.9 35.8 54 SSE 3 G 8 29.95 1014.2 0.00 550 0.097
14 15:00 51.6 37.3 58 S 6 G 10 29.97 1015.0 0.00 701 0.082
14 14:00 51.2 38.6 53.3 40.9 62 SSE 3 G 9 30.00 1015.8 0.00 812 0.065
14 13:00 52.2 39.2 61 ESE 4 G 8 30.01 1016.2 0.00 865 0.048
14 12:00 50.9 37.1 59 SE 4 G 9 30.02 1016.6 0.00 860 0.031
14 11:00 53.1 38.7 58 ESE 3 G 5 30.04 1017.4 0.00 789 0.018
14 10:00 46.0 34.9 65 ENE 7 G 12 30.06 1017.8 0.00 617 0.008
14 09:00 44.3 32.9 64 NNE 4 G 10 30.07 1018.2 0.00 436 0.002
14 08:00 41.0 32.3 41.1 33.5 71 NNE 6 G 11 30.08 1018.6 0.00 156 0.000

Data generated by WxSolution Version 1.9.1.8, Build 2020.02.16.